CEFAS Endeavour — VQHF3 — position and weather

sailwx.info

Track history (hours):
 
Tides and Currents Weather Stations Pressure Air Temp Water Temp Dewpoint Dewpoint Depression Visibility Wind Speed Wind Dir Waves Ship Positions

Oceanographic research ship CEFAS Endeavour (UK)

Detailed information on ship capabilities available from University of Delaware's Ocean Information Center.

Last reported at 2014-Aug-22 17:33 UTC. Time now 2014-Aug-29 10:23 UTC.
Position N 57°46' W 001°24'.

Length 74 m; draft 5.3 m.

Type: Ship. MMSI: 235005270.

Date/timePositionNaut miles runAvg speedWind from/ knotsBaromVisibWave heightAir tempDewpointWater temp
2014-Aug-22 17:33N 57°46' W 001°24'1212.3
2014-Aug-22 16:34N 57°35' W 001°34'1312.6
2014-Aug-22 15:33N 57°24' W 001°45'  
2014-Aug-18 08:03N 55°35' E 004°54'65 3.0
2014-Aug-17 10:12N 55°40' E 006°48'2 3.6
2014-Aug-17 09:32N 55°41' E 006°45'9 4.4
2014-Aug-17 07:33N 55°38' E 006°59'6 5.7
2014-Aug-17 06:33N 55°36' E 007°09'2 1.7
2014-Aug-17 05:30N 55°36' E 007°12'4 3.8
2014-Aug-17 04:34N 55°40' E 007°10'3 3.2
2014-Aug-17 03:33N 55°37' E 007°12'6 6.4
2014-Aug-17 02:33N 55°30' E 007°15'7 7.0
2014-Aug-17 01:33N 55°24' E 007°19'6 6.3
2014-Aug-17 00:33N 55°18' E 007°22'6 6.1
2014-Aug-16 23:33N 55°12' E 007°25'6 6.3
2014-Aug-16 22:33N 55°06' E 007°26'6 6.2
2014-Aug-16 21:33N 54°59' E 007°27'6 6.2
2014-Aug-16 20:33N 54°53' E 007°27'3 0.6
2014-Aug-16 16:03N 54°51' E 007°29'3 6.7
2014-Aug-16 15:33N 54°52' E 007°23'10 9.5
2014-Aug-16 14:32N 54°54' E 007°07'4 4.4
2014-Aug-16 13:32N 54°54' E 006°59'90 3.6
2014-Aug-15 12:27N 53°59' E 004°58'1111.5
2014-Aug-15 11:30N 53°50' E 005°08'7 7.6
2014-Aug-15 10:33N 53°45' E 005°16'3 3.1
2014-Aug-15 09:31N 53°45' E 005°22'1211.8
2014-Aug-15 08:32N 53°46' E 005°02'1612.7
2014-Aug-15 07:16N 53°50' E 004°36'3 3.8
2014-Aug-15 06:33N 53°49' E 004°32'1 0.6
2014-Aug-15 05:33N 53°49' E 004°33'  
Track history (hours):
 
Tides and Currents Weather Stations Pressure Air Temp Water Temp Dewpoint Dewpoint Depression Visibility Wind Speed Wind Dir Waves Ship Positions

Oceanographic research ship CEFAS Endeavour (UK)

Detailed information on ship capabilities available from University of Delaware's Ocean Information Center.

Last reported at 2014-Aug-22 17:33 UTC. Time now 2014-Aug-29 10:23 UTC.
Position N 57°46' W 001°24'.

Length 74 m; draft 5.3 m.

Type: Ship. MMSI: 235005270.

Date/timePositionNaut miles runAvg speedWind from/ knotsBaromVisibWave heightAir tempDewpointWater temp
2014-Aug-22 17:33N 57°46' W 001°24'1212.3
2014-Aug-22 16:34N 57°35' W 001°34'1312.6
2014-Aug-22 15:33N 57°24' W 001°45'  
2014-Aug-18 08:03N 55°35' E 004°54'65 3.0
2014-Aug-17 10:12N 55°40' E 006°48'2 3.6
2014-Aug-17 09:32N 55°41' E 006°45'9 4.4
2014-Aug-17 07:33N 55°38' E 006°59'6 5.7
2014-Aug-17 06:33N 55°36' E 007°09'2 1.7
2014-Aug-17 05:30N 55°36' E 007°12'4 3.8
2014-Aug-17 04:34N 55°40' E 007°10'3 3.2
2014-Aug-17 03:33N 55°37' E 007°12'6 6.4
2014-Aug-17 02:33N 55°30' E 007°15'7 7.0
2014-Aug-17 01:33N 55°24' E 007°19'6 6.3
2014-Aug-17 00:33N 55°18' E 007°22'6 6.1
2014-Aug-16 23:33N 55°12' E 007°25'6 6.3
2014-Aug-16 22:33N 55°06' E 007°26'6 6.2
2014-Aug-16 21:33N 54°59' E 007°27'6 6.2
2014-Aug-16 20:33N 54°53' E 007°27'3 0.6
2014-Aug-16 16:03N 54°51' E 007°29'3 6.7
2014-Aug-16 15:33N 54°52' E 007°23'10 9.5
2014-Aug-16 14:32N 54°54' E 007°07'4 4.4
2014-Aug-16 13:32N 54°54' E 006°59'90 3.6
2014-Aug-15 12:27N 53°59' E 004°58'1111.5
2014-Aug-15 11:30N 53°50' E 005°08'7 7.6
2014-Aug-15 10:33N 53°45' E 005°16'3 3.1
2014-Aug-15 09:31N 53°45' E 005°22'1211.8
2014-Aug-15 08:32N 53°46' E 005°02'1612.7
2014-Aug-15 07:16N 53°50' E 004°36'3 3.8
2014-Aug-15 06:33N 53°49' E 004°32'1 0.6
2014-Aug-15 05:33N 53°49' E 004°33'  

Dump ship's entire track history